Last 24 Hours

Canyon Lodge - 8,343ft

5 Minute Data | America/Los_Angeles
as of 8/31/26 12:15 PM PDT
Date & Time Temp (°F) RH (%) Dew Pt (°F) Wet Bulb (°F) Wind Dir (°) Wind Spd (mph) Wind Gust (mph) Wind Gst Dir (°)
8/31/26 - 1210 63.7 38 37.6 50.2 WSW | 254 1.6 7.3 SW | 236
8/31/26 - 1205 63.1 38 37.1 49.8 WSW | 238 4.7 10.5 SW | 219
8/31/26 - 1200 62.8 38 37.0 49.6 SW | 230 3.6 11.3 SSW | 212
8/31/26 - 1155 64.0 37 37.4 50.2 SW | 222 4.0 10.9 SSW | 213
8/31/26 - 1150 63.3 36 36.2 49.5 SW | 234 4.8 11.7 SW | 222
8/31/26 - 1145 63.8 37 36.8 49.9 SSW | 207 3.3 8.1 SSW | 196
8/31/26 - 1140 63.2 36 36.2 49.4 SSW | 197 4.3 9.4 SW | 227
8/31/26 - 1135 64.0 37 37.1 50.1 SSW | 194 2.6 11.5 SSE | 153
8/31/26 - 1130 62.9 36 35.5 49.1 SE | 144 5.0 12.4 SSW | 199
8/31/26 - 1125 62.8 37 35.8 49.1 SSE | 147 4.5 11.7 SE | 131
8/31/26 - 1120 63.9 37 37.3 50.1 S | 190 3.7 10.8 SSW | 209
8/31/26 - 1115 64.6 38 38.3 50.8 SSW | 202 3.1 11.1 SW | 221
8/31/26 - 1110 63.7 37 37.1 50.0 ESE | 106 1.7 7.6 S | 184
8/31/26 - 1105 63.2 37 36.5 49.6 NE | 40 0.9 5.8 NNE | 24
8/31/26 - 1100 62.5 37 36.0 49.1 SSE | 163 3.4 8.0 SSW | 201
8/31/26 - 1055 62.8 37 36.1 49.2 S | 188 2.0 7.0 SSE | 153
8/31/26 - 1050 62.4 37 35.7 48.9 NNE | 21 2.8 6.0 N | 4
8/31/26 - 1045 61.8 38 36.3 48.9 NNE | 19 3.4 6.1 NNE | 27
8/31/26 - 1040 63.4 39 37.7 50.1 ESE | 119 1.6 5.6 N | 11
8/31/26 - 1035 62.6 39 37.3 49.6 N | 6 1.8 5.6 NE | 42
8/31/26 - 1030 62.4 38 36.8 49.4 ESE | 115 2.3 5.8 ESE | 119
8/31/26 - 1025 62.2 38 36.2 49.0 NNE | 26 3.2 7.9 N | 352
8/31/26 - 1020 62.2 38 36.3 49.1 NE | 44 1.2 4.3 ESE | 104
8/31/26 - 1015 61.7 38 35.9 48.8 NE | 43 1.4 5.6 NNE | 29
8/31/26 - 1010 61.2 39 35.8 48.5 NE | 34 2.2 6.3 SE | 127
8/31/26 - 1005 62.8 38 37.1 49.6 ENE | 63 1.0 5.1 E | 90
8/31/26 - 1000 61.7 39 36.6 49.0 E | 83 2.1 5.1 E | 96
8/31/26 - 0955 62.5 39 37.5 49.7 SSE | 161 0.5 3.0 ESE | 108
8/31/26 - 0950 61.7 39 36.4 48.9 ENE | 58 1.2 6.1 ESE | 110
8/31/26 - 0945 61.6 40 36.8 49.0 ENE | 58 1.1 5.6 ENE | 76
8/31/26 - 0940 62.0 39 36.8 49.2 ESE | 109 1.4 4.5 ENE | 78
8/31/26 - 0935 61.8 40 37.6 49.4 ESE | 111 0.9 6.3 ESE | 108
8/31/26 - 0930 61.5 40 37.1 49.2 ENE | 67 1.4 4.4 ESE | 103
8/31/26 - 0925 61.9 40 37.6 49.5 ESE | 115 1.3 5.4 ENE | 70
8/31/26 - 0920 60.9 41 36.9 48.8 SW | 232 3.7 10.1 SSW | 206
8/31/26 - 0915 61.7 41 37.7 49.5 S | 175 1.1 6.4 W | 264
8/31/26 - 0910 60.8 41 36.7 48.7 WSW | 237 1.9 6.0 WSW | 253
8/31/26 - 0905 61.0 40 36.8 48.8 SSW | 208 2.7 6.6 SSW | 198
8/31/26 - 0900 60.9 41 36.9 48.8 SSW | 212 1.8 7.5 W | 275
8/31/26 - 0855 60.4 40 35.8 48.2 S | 185 2.7 8.8 SSW | 192
8/31/26 - 0850 60.8 39 35.9 48.4 S | 180 2.4 8.9 S | 190
8/31/26 - 0845 60.5 40 36.1 48.4 SSW | 200 2.9 9.2 SSW | 202
8/31/26 - 0840 60.8 40 36.3 48.5 S | 178 0.8 5.3 SW | 223
8/31/26 - 0835 60.4 40 35.8 48.2 S | 176 2.4 10.1 S | 180
8/31/26 - 0830 60.2 39 35.3 47.9 SSW | 196 2.5 7.0 S | 176
8/31/26 - 0825 59.8 39 35.1 47.7 S | 179 3.5 8.5 SSE | 163
8/31/26 - 0820 59.8 40 35.6 47.9 S | 181 2.3 6.4 SW | 220
8/31/26 - 0815 59.7 41 35.7 47.9 S | 181 1.6 5.5 S | 177
8/31/26 - 0810 59.2 41 35.5 47.6 S | 182 4.1 10.2 S | 172
8/31/26 - 0805 59.4 40 35.0 47.4 SW | 214 2.3 5.7 SW | 233
8/31/26 - 0800 59.1 40 34.6 47.2 S | 184 1.9 5.8 S | 176
8/31/26 - 0755 58.8 40 34.5 47.0 SSW | 194 3.9 8.6 S | 185
8/31/26 - 0750 58.6 41 34.8 47.1 SW | 220 2.5 7.7 SSW | 205
8/31/26 - 0745 58.3 41 34.9 47.0 S | 190 2.7 6.7 S | 187
8/31/26 - 0740 58.2 41 34.6 46.8 SSW | 197 3.1 9.7 S | 184
8/31/26 - 0735 57.8 41 34.3 46.5 S | 182 1.8 5.9 S | 191
8/31/26 - 0730 57.6 41 34.1 46.4 SSW | 193 1.0 5.1 SSE | 162
8/31/26 - 0725 57.1 41 33.5 45.9 S | 185 1.9 6.1 SSE | 148
8/31/26 - 0720 56.0 41 32.7 45.2 SSW | 198 0.7 8.0 S | 171
8/31/26 - 0715 54.3 41 30.9 43.7 W | 275 0.4 2.9 NNW | 341
8/31/26 - 0710 52.3 39 28.4 42.0 ESE | 104 0.4 2.2 SSE | 161
8/31/26 - 0705 51.0 39 27.2 41.0 NW | 315 0.7 3.4 W | 260
8/31/26 - 0700 48.3 39 24.5 38.8 NNE | 31 0.5 2.5 N | 350
8/31/26 - 0655 47.1 39 23.2 37.8 N | 0 0.0 0.0 SE | 132
8/31/26 - 0650 47.2 38 22.8 37.8 SE | 136 0.0 0.4 SE | 140
8/31/26 - 0645 47.1 38 23.1 37.8 SSE | 152 0.0 0.4 SSE | 152
8/31/26 - 0640 47.8 39 23.8 38.3 NNW | 330 0.0 0.8 NNW | 327
8/31/26 - 0635 47.7 38 23.6 38.2 ESE | 113 0.0 0.8 SSE | 166
8/31/26 - 0630 47.7 39 23.9 38.3 NW | 308 0.0 0.2 WNW | 294
8/31/26 - 0625 49.0 40 25.8 39.5 WNW | 286 0.4 2.3 W | 280
8/31/26 - 0620 49.0 40 25.7 39.5 W | 276 0.2 2.5 W | 271
8/31/26 - 0615 49.2 40 26.0 39.7 W | 267 1.2 4.3 WSW | 258
8/31/26 - 0610 49.7 40 26.2 40.0 W | 281 0.4 1.6 WNW | 284
8/31/26 - 0605 49.8 40 26.2 40.1 W | 265 2.3 4.2 W | 263
8/31/26 - 0600 49.1 39 25.4 39.4 W | 273 0.8 3.1 WNW | 284
8/31/26 - 0555 49.0 39 24.9 39.3 W | 272 0.3 2.5 SW | 235
8/31/26 - 0550 49.6 39 25.7 39.8 W | 274 1.0 3.7 WNW | 289
8/31/26 - 0545 49.1 39 25.0 39.4 W | 276 1.2 3.9 W | 274
8/31/26 - 0540 48.4 38 24.1 38.7 WSW | 253 0.3 2.1 SSW | 197
8/31/26 - 0535 48.4 38 24.2 38.8 SSW | 213 0.4 3.4 S | 177
8/31/26 - 0530 49.0 38 24.6 39.2 W | 262 0.4 3.9 WSW | 253
8/31/26 - 0525 48.9 38 24.7 39.2 WNW | 292 0.1 1.8 NW | 312
8/31/26 - 0520 49.1 38 24.8 39.3 WSW | 256 0.3 2.3 WSW | 255
8/31/26 - 0515 49.1 38 24.8 39.3 WSW | 237 0.4 2.6 S | 182
8/31/26 - 0510 49.4 38 24.7 39.4 SW | 223 0.7 2.7 WSW | 243
8/31/26 - 0505 49.2 37 24.2 39.2 W | 270 0.4 2.3 WSW | 248
8/31/26 - 0500 49.5 37 24.4 39.4 W | 267 0.0 0.4 W | 268
8/31/26 - 0455 50.0 38 25.4 39.9 WSW | 247 0.3 2.1 W | 261
8/31/26 - 0450 49.2 38 24.9 39.3 N | 0 0.0 0.0 SSE | 166
8/31/26 - 0445 49.7 40 26.3 40.0 W | 277 0.1 1.0 W | 278
8/31/26 - 0440 49.6 40 26.3 40.0 WNW | 286 0.1 1.4 W | 274
8/31/26 - 0435 49.5 39 25.7 39.7 SW | 227 0.0 0.3 WSW | 243
8/31/26 - 0430 49.2 38 24.6 39.3 N | 0 0.0 0.0 SSW | 192
8/31/26 - 0425 48.7 38 24.3 38.9 SSW | 201 0.3 1.9 SSW | 204
8/31/26 - 0420 48.4 38 24.2 38.8 S | 185 0.2 2.0 SSW | 199
8/31/26 - 0415 48.8 39 24.7 39.1 E | 92 0.1 1.5 ENE | 70
8/31/26 - 0410 48.9 39 25.2 39.3 SW | 224 0.0 0.8 WSW | 242
8/31/26 - 0405 49.0 39 25.0 39.3 SSW | 203 0.1 0.9 SSW | 205
8/31/26 - 0400 49.4 38 24.9 39.4 SSW | 209 0.2 2.1 SSW | 197
8/31/26 - 0355 50.4 39 26.3 40.4 WSW | 243 0.1 1.7 WSW | 248
8/31/26 - 0350 49.6 38 25.0 39.6 N | 0 0.0 0.0 WSW | 252
8/31/26 - 0345 50.3 38 25.4 40.1 WSW | 249 0.8 3.0 WSW | 246
8/31/26 - 0340 50.7 37 25.5 40.3 W | 260 2.1 3.6 WSW | 252
8/31/26 - 0335 50.4 38 26.0 40.3 SW | 229 0.2 1.2 WSW | 257
8/31/26 - 0330 50.6 38 25.7 40.3 WSW | 250 0.4 3.0 WSW | 239
8/31/26 - 0325 51.1 36 25.2 40.4 WSW | 248 2.1 3.5 WSW | 241
8/31/26 - 0320 50.5 37 25.1 40.1 WSW | 256 2.9 5.2 W | 262
8/31/26 - 0315 51.1 36 25.3 40.4 WSW | 253 3.1 5.0 W | 267
8/31/26 - 0310 50.9 37 25.6 40.4 SW | 229 1.6 3.7 WSW | 244
8/31/26 - 0305 50.3 38 26.0 40.2 SSW | 208 0.2 1.7 SW | 216
8/31/26 - 0300 50.7 38 25.7 40.3 SW | 218 0.7 3.2 SSW | 204
8/31/26 - 0255 50.5 37 25.4 40.2 SSW | 206 0.2 2.4 SSW | 208
8/31/26 - 0250 51.1 38 26.3 40.7 SW | 220 2.2 3.7 SW | 217
8/31/26 - 0245 51.0 37 25.9 40.6 SW | 215 1.2 3.3 SSW | 196
8/31/26 - 0240 51.1 38 26.2 40.7 SW | 223 1.9 4.1 SW | 230
8/31/26 - 0235 51.1 37 25.6 40.5 SW | 228 1.4 3.4 SW | 225
8/31/26 - 0230 51.6 35 24.8 40.5 SW | 227 2.1 3.7 SW | 218
8/31/26 - 0225 51.5 35 25.0 40.5 SW | 235 1.6 3.5 WSW | 245
8/31/26 - 0220 51.5 36 25.4 40.6 SW | 229 1.6 3.6 SW | 216
8/31/26 - 0215 50.9 37 25.5 40.4 SW | 226 0.8 3.0 SSW | 210
8/31/26 - 0210 49.4 37 24.1 39.2 SW | 225 0.0 0.3 SW | 225
8/31/26 - 0205 49.6 37 24.2 39.4 SSW | 196 0.1 1.8 SSW | 204
8/31/26 - 0200 49.4 35 23.1 38.9 S | 176 0.0 1.2 SSE | 148
8/31/26 - 0155 49.5 35 22.8 38.9 SSW | 196 0.0 0.8 SSW | 206
8/31/26 - 0150 50.0 35 23.5 39.3 SW | 217 0.0 0.5 SW | 221
8/31/26 - 0145 50.2 35 23.9 39.6 S | 184 0.0 1.0 S | 188
8/31/26 - 0140 50.7 36 24.6 40.0 W | 263 0.1 0.7 W | 267
8/31/26 - 0135 50.6 36 24.3 39.9 W | 279 0.0 1.0 W | 275
8/31/26 - 0130 51.1 35 24.7 40.3 ENE | 63 0.0 0.5 ENE | 59
8/31/26 - 0125 52.1 35 25.0 40.8 SW | 220 1.4 2.9 SW | 228
8/31/26 - 0120 51.5 35 24.6 40.4 SSW | 209 0.3 2.1 SW | 225
8/31/26 - 0115 51.2 34 24.0 40.1 SSW | 203 0.0 0.9 SSW | 199
8/31/26 - 0110 51.4 35 24.8 40.4 SSW | 197 0.8 3.9 SSW | 197
8/31/26 - 0105 51.3 36 25.3 40.5 W | 278 0.1 1.4 W | 281
8/31/26 - 0100 51.8 36 25.8 40.9 W | 274 0.0 0.9 W | 279
8/31/26 - 0055 52.6 36 26.4 41.5 WSW | 247 0.6 2.2 WSW | 257
8/31/26 - 0050 52.6 36 26.3 41.4 W | 275 0.3 3.4 WSW | 257
8/31/26 - 0045 53.2 37 27.9 42.3 W | 264 1.9 4.0 W | 269
8/31/26 - 0040 53.4 37 27.8 42.3 WSW | 249 1.9 4.1 W | 265
8/31/26 - 0035 54.0 36 27.9 42.6 SW | 222 3.4 5.8 SW | 226
8/31/26 - 0030 53.6 36 27.2 42.2 SW | 230 0.8 3.0 SSW | 212
8/31/26 - 0025 53.6 35 26.8 42.1 SW | 230 0.3 1.2 WSW | 246
8/31/26 - 0020 52.3 35 25.6 41.1 WSW | 245 0.2 1.6 WSW | 250
8/31/26 - 0015 52.8 36 26.7 41.7 S | 185 0.0 1.0 S | 183
8/31/26 - 0010 53.5 36 27.0 42.1 N | 0 0.0 0.0 SW | 214
8/31/26 - 0005 54.9 34 27.4 42.9 ESE | 120 0.2 1.2 SE | 138
8/31/26 - 0000 57.2 34 29.2 44.5 S | 182 1.2 5.0 SSW | 206
8/30/26 - 2355 58.3 35 30.6 45.4 SW | 214 0.8 3.1 SSW | 202
8/30/26 - 2350 58.8 35 31.4 45.9 SW | 234 1.5 4.8 SSW | 203
8/30/26 - 2345 58.2 35 30.4 45.3 SSW | 202 1.1 4.3 WSW | 256
8/30/26 - 2340 58.1 35 30.6 45.3 SSW | 194 0.5 2.4 SSE | 166
8/30/26 - 2335 58.5 35 31.1 45.7 SSW | 204 1.9 5.2 SW | 232
8/30/26 - 2330 58.2 35 30.7 45.4 SSW | 202 1.4 5.1 S | 170
8/30/26 - 2325 58.3 34 30.2 45.3 SSW | 206 1.0 3.2 SSW | 201
8/30/26 - 2320 59.4 34 31.2 46.1 SW | 226 1.0 3.8 WSW | 247
8/30/26 - 2315 58.9 34 30.8 45.7 S | 187 1.2 5.3 SSW | 210
8/30/26 - 2310 59.1 35 31.4 46.0 SSW | 206 1.1 4.5 S | 183
8/30/26 - 2305 59.7 35 31.8 46.4 SSW | 212 2.0 5.8 SSE | 148
8/30/26 - 2300 59.5 34 30.8 46.0 SSW | 212 1.9 6.1 W | 263
8/30/26 - 2255 58.5 34 30.6 45.5 SSW | 206 0.5 2.9 SSW | 204
8/30/26 - 2250 58.8 34 30.6 45.6 WSW | 245 0.8 4.6 SW | 233
8/30/26 - 2245 58.6 34 30.6 45.6 SSW | 201 0.6 4.0 S | 178
8/30/26 - 2240 57.9 34 29.7 45.0 S | 183 1.0 4.5 S | 187
8/30/26 - 2235 58.0 34 29.6 44.9 SSW | 202 0.3 2.4 SSW | 195
8/30/26 - 2230 57.7 34 29.8 44.9 S | 190 0.8 4.8 S | 191
8/30/26 - 2225 57.9 34 30.1 45.1 S | 172 0.6 6.3 SSE | 159
8/30/26 - 2220 59.0 35 31.2 45.9 SW | 232 0.3 3.2 W | 280
8/30/26 - 2215 59.6 34 31.3 46.2 SW | 216 2.2 9.5 SW | 230
8/30/26 - 2210 59.7 33 30.4 46.0 SW | 214 2.6 5.8 SSE | 159
8/30/26 - 2205 59.8 33 30.8 46.1 SSW | 212 1.9 5.0 SSW | 210
8/30/26 - 2200 59.8 34 31.6 46.4 SSW | 208 1.8 6.8 WSW | 251
8/30/26 - 2155 60.3 33 31.0 46.4 SSW | 196 3.1 10.2 S | 187
8/30/26 - 2150 60.4 32 30.1 46.2 SSW | 203 4.8 10.6 S | 172
8/30/26 - 2145 60.3 32 30.3 46.2 S | 177 3.3 8.0 S | 171
8/30/26 - 2140 60.3 31 29.8 46.0 SW | 221 3.0 8.4 S | 177
8/30/26 - 2135 60.5 31 29.9 46.1 SW | 223 3.4 8.3 WSW | 245
8/30/26 - 2130 60.8 31 30.1 46.3 SSW | 195 4.7 14.3 SSW | 207
8/30/26 - 2125 60.4 32 30.1 46.2 S | 185 2.4 7.6 S | 178
8/30/26 - 2120 60.5 32 30.2 46.2 S | 179 3.1 10.1 SSE | 160
8/30/26 - 2115 60.5 32 30.2 46.2 SSW | 194 2.0 6.6 SSE | 164
8/30/26 - 2110 60.2 32 29.9 46.0 S | 189 2.3 9.1 S | 184
8/30/26 - 2105 59.9 32 29.7 45.8 S | 169 2.7 7.3 S | 175
8/30/26 - 2100 60.0 32 29.8 45.9 S | 187 4.2 11.0 S | 186
8/30/26 - 2055 59.9 32 29.7 45.8 S | 188 3.7 10.3 S | 174
8/30/26 - 2050 59.8 32 29.6 45.8 S | 186 2.4 7.4 S | 187
8/30/26 - 2045 59.8 32 29.6 45.8 S | 183 2.6 8.8 S | 187
8/30/26 - 2040 59.9 32 29.7 45.8 SSW | 195 2.5 7.7 WSW | 256
8/30/26 - 2035 59.8 32 29.6 45.8 SSW | 203 1.5 6.6 S | 177
8/30/26 - 2030 59.7 32 29.5 45.7 SSW | 192 1.9 7.9 SSE | 150
8/30/26 - 2025 59.1 31 28.6 45.1 SSE | 148 0.8 5.5 SSE | 152
8/30/26 - 2020 59.5 31 29.0 45.4 S | 174 1.4 4.5 SSE | 164
8/30/26 - 2015 59.6 31 29.2 45.5 S | 169 2.1 6.0 SSW | 201
8/30/26 - 2010 59.5 31 29.0 45.4 S | 191 0.5 4.1 SSE | 159
8/30/26 - 2005 59.6 32 29.5 45.6 S | 181 1.0 6.5 SSE | 166
8/30/26 - 2000 59.6 32 29.5 45.6 S | 170 1.5 5.2 SSW | 194
8/30/26 - 1955 59.5 32 29.4 45.5 S | 173 1.2 6.3 SSW | 210
8/30/26 - 1950 59.7 32 29.9 45.8 SSE | 163 1.8 6.0 W | 268
8/30/26 - 1945 59.8 33 30.8 46.1 SSW | 201 2.2 8.7 S | 180
8/30/26 - 1940 60.2 34 31.5 46.5 SSW | 211 0.7 4.8 SSE | 165
8/30/26 - 1935 60.3 34 32.1 46.8 SW | 221 1.5 4.6 SSE | 159
8/30/26 - 1930 60.5 34 32.2 46.9 SSW | 206 2.1 6.4 S | 181
8/30/26 - 1925 60.3 34 31.6 46.6 S | 190 2.0 7.3 SSW | 192
8/30/26 - 1920 60.2 33 30.9 46.3 SSW | 197 0.4 3.2 SW | 234
8/30/26 - 1915 60.3 33 31.3 46.5 SSW | 201 3.0 7.0 SSW | 206
8/30/26 - 1910 60.5 33 31.4 46.6 SSE | 158 1.7 7.5 SE | 146
8/30/26 - 1905 59.9 33 30.9 46.2 SSE | 148 1.4 5.0 ESE | 119
8/30/26 - 1900 60.2 33 31.2 46.4 S | 178 3.9 10.4 S | 171
8/30/26 - 1855 60.5 34 31.7 46.8 SW | 220 2.5 9.0 SW | 217
8/30/26 - 1850 61.0 34 32.6 47.2 SSW | 201 3.8 9.9 SSW | 192
8/30/26 - 1845 60.6 34 31.9 46.8 S | 191 2.8 11.5 S | 180
8/30/26 - 1840 60.9 33 31.7 46.9 SSW | 196 2.8 8.6 S | 183
8/30/26 - 1835 61.0 33 31.4 46.8 SSW | 198 3.3 9.6 WSW | 240
8/30/26 - 1830 61.1 33 31.5 46.9 SSW | 197 2.8 12.4 SSW | 202
8/30/26 - 1825 61.4 33 32.4 47.3 SW | 221 3.1 13.8 WSW | 253
8/30/26 - 1820 61.7 32 31.9 47.3 S | 178 2.2 10.3 SSW | 201
8/30/26 - 1815 61.8 32 31.8 47.3 SSW | 202 3.0 6.9 WSW | 253
8/30/26 - 1810 62.2 32 32.2 47.6 SSW | 196 3.2 11.1 SSW | 204
8/30/26 - 1805 62.5 33 32.7 47.9 SSW | 193 2.5 8.3 S | 182
8/30/26 - 1800 62.8 33 33.2 48.2 SSW | 212 3.5 10.0 SSW | 194
8/30/26 - 1755 63.3 34 34.3 48.8 S | 183 2.8 10.6 SSE | 168
8/30/26 - 1750 63.2 34 34.2 48.7 SSW | 193 4.4 10.8 SSW | 194
8/30/26 - 1745 63.6 33 34.1 48.8 SSW | 195 3.8 10.1 SW | 223
8/30/26 - 1740 63.7 34 34.9 49.1 SW | 234 4.8 12.3 SSW | 208
8/30/26 - 1735 64.2 35 36.2 49.8 SW | 228 4.2 10.1 SW | 227
8/30/26 - 1730 64.5 34 35.6 49.7 SW | 227 3.0 10.6 SW | 228
8/30/26 - 1725 64.5 33 34.9 49.4 SSW | 202 4.2 11.5 SW | 232
8/30/26 - 1720 64.4 32 34.2 49.2 SW | 226 6.7 12.6 SW | 232
8/30/26 - 1715 65.0 33 34.9 49.6 SW | 214 2.3 7.1 SSW | 212
8/30/26 - 1710 64.5 33 34.5 49.3 SSW | 199 3.8 10.0 WSW | 245
8/30/26 - 1705 64.4 33 34.7 49.3 SW | 219 4.3 10.5 W | 264
8/30/26 - 1700 64.0 33 34.6 49.1 SW | 235 6.2 16.3 WSW | 255
8/30/26 - 1655 64.3 34 35.5 49.6 SW | 229 5.4 12.5 WSW | 248
8/30/26 - 1650 64.6 35 36.2 50.0 SW | 234 4.9 16.3 S | 177
8/30/26 - 1645 64.8 33 35.4 49.7 SW | 228 6.3 13.1 W | 267
8/30/26 - 1640 65.4 34 36.6 50.4 S | 179 5.6 13.4 SSW | 192
8/30/26 - 1635 64.9 33 35.0 49.6 SSW | 194 6.1 14.2 S | 185
8/30/26 - 1630 65.5 33 35.9 50.2 SW | 214 3.6 12.9 S | 185
8/30/26 - 1625 65.2 34 36.0 50.1 SSW | 200 6.0 15.9 S | 180
8/30/26 - 1620 65.7 35 37.5 50.8 SSW | 198 4.8 10.5 SSW | 199
8/30/26 - 1615 65.2 35 36.7 50.4 WSW | 247 6.0 15.8 WSW | 245
8/30/26 - 1610 67.0 33 37.0 51.1 SSW | 209 2.9 12.4 W | 262
8/30/26 - 1605 65.9 33 36.0 50.4 S | 187 6.2 11.8 SW | 219
8/30/26 - 1600 67.0 33 37.0 51.1 S | 179 5.7 14.7 S | 184
8/30/26 - 1555 66.2 33 36.4 50.6 SSW | 202 5.2 14.9 S | 170
8/30/26 - 1550 66.6 34 37.1 51.0 SSW | 211 5.6 18.2 SSE | 166
8/30/26 - 1545 67.1 35 38.3 51.7 SSW | 192 4.4 13.0 S | 172
8/30/26 - 1540 67.2 36 39.1 52.0 SSW | 205 3.4 12.0 S | 169
8/30/26 - 1535 66.4 35 38.0 51.3 SSW | 195 5.0 9.5 S | 178
8/30/26 - 1530 66.0 34 36.7 50.7 S | 173 7.9 14.8 S | 185
8/30/26 - 1525 66.0 34 36.7 50.7 S | 186 6.4 17.4 S | 181
8/30/26 - 1520 65.8 34 36.7 50.6 SSW | 196 7.0 18.7 SSW | 205
8/30/26 - 1515 66.4 34 37.3 51.0 S | 187 6.8 18.5 S | 177
8/30/26 - 1510 67.0 34 38.1 51.5 S | 191 4.8 14.6 S | 186
8/30/26 - 1505 67.2 35 38.8 51.9 SW | 229 2.8 9.4 WSW | 241
8/30/26 - 1500 67.3 36 39.3 52.2 S | 186 4.3 9.6 SSW | 192
8/30/26 - 1455 66.4 35 38.1 51.3 SSW | 192 6.9 15.2 S | 191
8/30/26 - 1450 66.7 37 39.4 52.0 SW | 224 4.3 12.4 SW | 232
8/30/26 - 1445 67.0 36 39.4 52.1 SW | 217 3.5 11.6 SSW | 198
8/30/26 - 1440 67.3 35 39.1 52.1 S | 186 7.1 18.2 SE | 145
8/30/26 - 1435 67.5 36 39.9 52.5 SSW | 200 4.2 13.4 S | 185
8/30/26 - 1430 67.0 36 39.5 52.1 SW | 214 4.7 10.8 WSW | 254
8/30/26 - 1425 68.1 36 40.0 52.7 S | 176 4.3 12.2 S | 185
8/30/26 - 1420 66.3 35 37.8 51.2 S | 181 7.7 14.4 SSW | 195
8/30/26 - 1415 68.0 35 39.1 52.3 SSW | 194 5.6 17.2 S | 187
8/30/26 - 1410 67.8 35 39.3 52.3 SSW | 193 5.1 11.2 SSW | 207
8/30/26 - 1405 67.3 35 39.0 52.0 SSW | 211 2.8 13.2 SSW | 201
8/30/26 - 1400 66.8 35 38.6 51.7 SW | 227 3.8 10.7 SSW | 192
8/30/26 - 1355 67.1 35 38.8 51.9 SW | 226 3.6 12.0 SSW | 194
8/30/26 - 1350 67.7 36 39.6 52.4 SW | 216 3.2 10.1 S | 188
8/30/26 - 1345 67.2 36 39.7 52.3 S | 175 4.2 11.5 S | 171
8/30/26 - 1340 67.4 36 39.4 52.3 SSW | 198 3.8 10.0 SSW | 199
8/30/26 - 1335 67.3 36 39.2 52.1 SSW | 208 4.2 13.1 SSW | 193
8/30/26 - 1330 67.8 36 39.8 52.6 SSW | 197 3.7 9.3 S | 174
8/30/26 - 1325 67.7 37 40.2 52.6 S | 190 4.1 10.4 SW | 220
8/30/26 - 1320 67.7 37 40.6 52.8 SSW | 208 2.5 8.9 S | 182
8/30/26 - 1315 67.4 37 40.1 52.5 S | 172 4.1 13.4 SSE | 162
8/30/26 - 1310 68.6 37 41.2 53.4 SSW | 193 2.3 6.9 SSW | 195
8/30/26 - 1305 67.8 37 40.7 52.9 W | 262 1.5 6.5 S | 170
8/30/26 - 1300 67.0 37 40.1 52.4 WNW | 295 3.2 13.7 NNW | 335
8/30/26 - 1255 66.3 38 40.1 52.2 NNW | 346 3.6 7.7 NNW | 347
8/30/26 - 1250 65.3 39 39.7 51.6 NW | 326 5.0 9.8 NNE | 32
8/30/26 - 1245 65.2 39 39.6 51.6 WNW | 294 4.0 12.0 NNW | 345
8/30/26 - 1240 66.5 39 40.6 52.5 NW | 320 1.1 5.3 NNW | 342
8/30/26 - 1235 67.1 39 41.4 53.0 WNW | 283 1.4 6.3 NW | 313
8/30/26 - 1230 65.6 39 40.1 51.9 ENE | 68 2.2 8.3 SSW | 200
8/30/26 - 1225 65.6 40 40.3 52.0 SSW | 202 3.2 9.2 SW | 228
8/30/26 - 1220 65.9 40 40.7 52.3 SSW | 207 2.9 12.2 SW | 216
8/30/26 - 1215 65.7 39 40.1 51.9 SSW | 198 1.9 5.5 SSW | 205
Max 68.6 41 41.4 53.4 - 7.9 18.7 -
Avg 58.8 36 31.9 46.0 - 2.2 6.8 -
Min 47.1 31 22.8 37.8 - 0.0 0.0 -